sensor_id;sensor_type;location;lat;lon;timestamp;temperature;humidity
3919;DHT22;1974;48.670;8.994;2024-01-06T00:01:13;5.40;99.90
3919;DHT22;1974;48.670;8.994;2024-01-06T00:03:40;5.40;99.90
3919;DHT22;1974;48.670;8.994;2024-01-06T00:06:07;5.40;99.90
3919;DHT22;1974;48.670;8.994;2024-01-06T00:08:33;5.40;99.90
3919;DHT22;1974;48.670;8.994;2024-01-06T00:11:00;5.40;99.90
3919;DHT22;1974;48.670;8.994;2024-01-06T00:13:28;5.40;99.90
3919;DHT22;1974;48.670;8.994;2024-01-06T00:15:55;5.40;99.90
3919;DHT22;1974;48.670;8.994;2024-01-06T00:18:23;5.30;99.90
3919;DHT22;1974;48.670;8.994;2024-01-06T00:20:49;5.30;99.90
3919;DHT22;1974;48.670;8.994;2024-01-06T00:23:16;5.30;99.90
3919;DHT22;1974;48.670;8.994;2024-01-06T00:25:43;5.30;99.90
3919;DHT22;1974;48.670;8.994;2024-01-06T00:28:09;5.30;99.90
3919;DHT22;1974;48.670;8.994;2024-01-06T00:30:36;5.30;99.90
3919;DHT22;1974;48.670;8.994;2024-01-06T00:33:03;5.30;99.90
3919;DHT22;1974;48.670;8.994;2024-01-06T00:35:31;5.30;99.90
3919;DHT22;1974;48.670;8.994;2024-01-06T00:37:58;5.30;99.90
3919;DHT22;1974;48.670;8.994;2024-01-06T00:40:25;5.30;99.90
3919;DHT22;1974;48.670;8.994;2024-01-06T00:42:52;5.20;99.90
3919;DHT22;1974;48.670;8.994;2024-01-06T00:45:19;5.30;99.90
3919;DHT22;1974;48.670;8.994;2024-01-06T00:47:46;5.30;99.90
3919;DHT22;1974;48.670;8.994;2024-01-06T00:50:13;5.20;99.90
3919;DHT22;1974;48.670;8.994;2024-01-06T00:52:41;5.20;99.90
3919;DHT22;1974;48.670;8.994;2024-01-06T00:55:08;5.20;99.90
3919;DHT22;1974;48.670;8.994;2024-01-06T00:57:35;5.20;99.90
3919;DHT22;1974;48.670;8.994;2024-01-06T01:00:02;5.20;99.90
3919;DHT22;1974;48.670;8.994;2024-01-06T01:02:29;5.20;99.90
3919;DHT22;1974;48.670;8.994;2024-01-06T01:04:56;5.20;99.90
3919;DHT22;1974;48.670;8.994;2024-01-06T01:07:23;5.20;99.90
3919;DHT22;1974;48.670;8.994;2024-01-06T01:09:51;5.20;99.90
3919;DHT22;1974;48.670;8.994;2024-01-06T01:12:18;5.20;99.90
3919;DHT22;1974;48.670;8.994;2024-01-06T01:14:44;5.20;99.90
3919;DHT22;1974;48.670;8.994;2024-01-06T01:17:11;5.20;99.90
3919;DHT22;1974;48.670;8.994;2024-01-06T01:19:38;5.20;99.90
3919;DHT22;1974;48.670;8.994;2024-01-06T01:22:05;5.20;99.90
3919;DHT22;1974;48.670;8.994;2024-01-06T01:24:31;5.20;99.90
3919;DHT22;1974;48.670;8.994;2024-01-06T01:26:59;5.10;99.90
3919;DHT22;1974;48.670;8.994;2024-01-06T01:29:26;5.10;99.90
3919;DHT22;1974;48.670;8.994;2024-01-06T01:31:52;5.10;99.90
3919;DHT22;1974;48.670;8.994;2024-01-06T01:34:19;5.10;99.90
3919;DHT22;1974;48.670;8.994;2024-01-06T01:36:46;5.10;99.90
3919;DHT22;1974;48.670;8.994;2024-01-06T01:39:13;5.10;99.90
3919;DHT22;1974;48.670;8.994;2024-01-06T01:41:39;5.10;99.90
3919;DHT22;1974;48.670;8.994;2024-01-06T01:44:08;5.10;99.90
3919;DHT22;1974;48.670;8.994;2024-01-06T01:46:35;5.10;99.90
3919;DHT22;1974;48.670;8.994;2024-01-06T01:49:03;5.10;99.90
3919;DHT22;1974;48.670;8.994;2024-01-06T01:51:32;5.10;99.90
3919;DHT22;1974;48.670;8.994;2024-01-06T01:54:01;5.20;99.90
3919;DHT22;1974;48.670;8.994;2024-01-06T01:56:29;5.20;99.90
3919;DHT22;1974;48.670;8.994;2024-01-06T01:59:00;5.10;99.90
3919;DHT22;1974;48.670;8.994;2024-01-06T02:01:29;5.10;99.90
3919;DHT22;1974;48.670;8.994;2024-01-06T02:03:56;5.10;99.90
3919;DHT22;1974;48.670;8.994;2024-01-06T02:06:24;5.20;99.90
3919;DHT22;1974;48.670;8.994;2024-01-06T02:08:50;5.20;99.90
3919;DHT22;1974;48.670;8.994;2024-01-06T02:11:17;5.20;99.90
3919;DHT22;1974;48.670;8.994;2024-01-06T02:13:44;5.20;99.90
3919;DHT22;1974;48.670;8.994;2024-01-06T02:16:10;5.20;99.90
3919;DHT22;1974;48.670;8.994;2024-01-06T02:18:38;5.20;99.90
3919;DHT22;1974;48.670;8.994;2024-01-06T02:21:06;5.20;99.90
3919;DHT22;1974;48.670;8.994;2024-01-06T02:23:35;5.20;99.90
3919;DHT22;1974;48.670;8.994;2024-01-06T02:26:03;5.20;99.90
3919;DHT22;1974;48.670;8.994;2024-01-06T02:28:29;5.30;99.90
3919;DHT22;1974;48.670;8.994;2024-01-06T02:30:56;5.30;99.90
3919;DHT22;1974;48.670;8.994;2024-01-06T02:33:23;5.20;99.90
3919;DHT22;1974;48.670;8.994;2024-01-06T02:35:50;5.20;99.90
3919;DHT22;1974;48.670;8.994;2024-01-06T02:38:16;5.20;99.90
3919;DHT22;1974;48.670;8.994;2024-01-06T02:40:44;5.20;99.90
3919;DHT22;1974;48.670;8.994;2024-01-06T02:43:11;5.20;99.90
3919;DHT22;1974;48.670;8.994;2024-01-06T02:45:38;5.20;99.90
3919;DHT22;1974;48.670;8.994;2024-01-06T02:48:05;5.20;99.90
3919;DHT22;1974;48.670;8.994;2024-01-06T02:50:31;5.20;99.90
3919;DHT22;1974;48.670;8.994;2024-01-06T02:52:58;5.20;99.90
3919;DHT22;1974;48.670;8.994;2024-01-06T02:55:25;5.20;99.90
3919;DHT22;1974;48.670;8.994;2024-01-06T02:57:53;5.20;99.90
3919;DHT22;1974;48.670;8.994;2024-01-06T03:00:20;5.20;99.90
3919;DHT22;1974;48.670;8.994;2024-01-06T03:02:46;5.10;99.90
3919;DHT22;1974;48.670;8.994;2024-01-06T03:05:13;5.10;99.90
3919;DHT22;1974;48.670;8.994;2024-01-06T03:07:40;5.10;99.90
3919;DHT22;1974;48.670;8.994;2024-01-06T03:10:06;5.10;99.90
3919;DHT22;1974;48.670;8.994;2024-01-06T03:12:33;5.00;99.90
3919;DHT22;1974;48.670;8.994;2024-01-06T03:15:01;5.00;99.90
3919;DHT22;1974;48.670;8.994;2024-01-06T03:17:28;5.00;99.90
3919;DHT22;1974;48.670;8.994;2024-01-06T03:19:55;5.00;99.90
3919;DHT22;1974;48.670;8.994;2024-01-06T03:22:21;5.10;99.90
3919;DHT22;1974;48.670;8.994;2024-01-06T03:24:48;5.00;99.90
3919;DHT22;1974;48.670;8.994;2024-01-06T03:27:15;5.00;99.90
3919;DHT22;1974;48.670;8.994;2024-01-06T03:29:41;5.00;99.90
3919;DHT22;1974;48.670;8.994;2024-01-06T03:32:10;5.00;99.90
3919;DHT22;1974;48.670;8.994;2024-01-06T03:34:36;5.00;99.90
3919;DHT22;1974;48.670;8.994;2024-01-06T03:37:03;5.10;99.90
3919;DHT22;1974;48.670;8.994;2024-01-06T03:39:30;5.00;99.90
3919;DHT22;1974;48.670;8.994;2024-01-06T03:41:56;5.00;99.90
3919;DHT22;1974;48.670;8.994;2024-01-06T03:44:23;5.00;99.90
3919;DHT22;1974;48.670;8.994;2024-01-06T03:46:50;5.10;99.90
3919;DHT22;1974;48.670;8.994;2024-01-06T03:49:18;5.10;99.90
3919;DHT22;1974;48.670;8.994;2024-01-06T03:51:46;5.10;99.90
3919;DHT22;1974;48.670;8.994;2024-01-06T03:54:13;5.10;99.90
3919;DHT22;1974;48.670;8.994;2024-01-06T03:56:39;5.10;99.90
3919;DHT22;1974;48.670;8.994;2024-01-06T03:59:06;5.10;99.90
3919;DHT22;1974;48.670;8.994;2024-01-06T04:01:33;5.10;99.90
3919;DHT22;1974;48.670;8.994;2024-01-06T04:04:02;5.10;99.90
3919;DHT22;1974;48.670;8.994;2024-01-06T04:06:30;5.10;99.90
3919;DHT22;1974;48.670;8.994;2024-01-06T04:08:57;5.10;99.90
3919;DHT22;1974;48.670;8.994;2024-01-06T04:11:24;5.10;99.90
3919;DHT22;1974;48.670;8.994;2024-01-06T04:13:51;5.10;99.90
3919;DHT22;1974;48.670;8.994;2024-01-06T04:16:17;5.10;99.90
3919;DHT22;1974;48.670;8.994;2024-01-06T04:18:44;5.10;99.90
3919;DHT22;1974;48.670;8.994;2024-01-06T04:21:11;5.10;99.90
3919;DHT22;1974;48.670;8.994;2024-01-06T04:23:39;5.00;99.90
3919;DHT22;1974;48.670;8.994;2024-01-06T04:26:05;5.00;99.90
3919;DHT22;1974;48.670;8.994;2024-01-06T04:28:32;5.00;99.90
3919;DHT22;1974;48.670;8.994;2024-01-06T04:30:59;5.00;99.90
3919;DHT22;1974;48.670;8.994;2024-01-06T04:33:25;5.00;99.90
3919;DHT22;1974;48.670;8.994;2024-01-06T04:35:52;5.00;99.90
3919;DHT22;1974;48.670;8.994;2024-01-06T04:38:19;5.00;99.90
3919;DHT22;1974;48.670;8.994;2024-01-06T04:40:47;5.00;99.90
3919;DHT22;1974;48.670;8.994;2024-01-06T04:43:13;5.00;99.90
3919;DHT22;1974;48.670;8.994;2024-01-06T04:45:40;5.00;99.90
3919;DHT22;1974;48.670;8.994;2024-01-06T04:48:07;5.00;99.90
3919;DHT22;1974;48.670;8.994;2024-01-06T04:50:34;5.10;99.90
3919;DHT22;1974;48.670;8.994;2024-01-06T04:53:00;5.10;99.90
3919;DHT22;1974;48.670;8.994;2024-01-06T04:55:27;5.10;99.90
3919;DHT22;1974;48.670;8.994;2024-01-06T04:57:55;5.10;99.90
3919;DHT22;1974;48.670;8.994;2024-01-06T05:00:22;5.00;99.90
3919;DHT22;1974;48.670;8.994;2024-01-06T05:02:49;5.00;99.90
3919;DHT22;1974;48.670;8.994;2024-01-06T05:05:16;5.00;99.90
3919;DHT22;1974;48.670;8.994;2024-01-06T05:07:42;5.00;99.90
3919;DHT22;1974;48.670;8.994;2024-01-06T05:10:09;5.00;99.90
3919;DHT22;1974;48.670;8.994;2024-01-06T05:12:36;5.10;99.90
3919;DHT22;1974;48.670;8.994;2024-01-06T05:15:05;5.10;99.90
3919;DHT22;1974;48.670;8.994;2024-01-06T05:17:31;5.10;99.90
3919;DHT22;1974;48.670;8.994;2024-01-06T05:19:58;5.10;99.90
3919;DHT22;1974;48.670;8.994;2024-01-06T05:22:25;5.10;99.90
3919;DHT22;1974;48.670;8.994;2024-01-06T05:24:53;5.10;99.90
3919;DHT22;1974;48.670;8.994;2024-01-06T05:27:19;5.10;99.90
3919;DHT22;1974;48.670;8.994;2024-01-06T05:29:46;5.10;99.90
3919;DHT22;1974;48.670;8.994;2024-01-06T05:32:15;5.10;99.90
3919;DHT22;1974;48.670;8.994;2024-01-06T05:34:42;5.10;99.90
3919;DHT22;1974;48.670;8.994;2024-01-06T05:37:09;5.10;99.90
3919;DHT22;1974;48.670;8.994;2024-01-06T05:39:37;5.10;99.90
3919;DHT22;1974;48.670;8.994;2024-01-06T05:42:05;5.10;99.90
3919;DHT22;1974;48.670;8.994;2024-01-06T05:44:31;5.10;99.90
3919;DHT22;1974;48.670;8.994;2024-01-06T05:47:01;5.20;99.90
3919;DHT22;1974;48.670;8.994;2024-01-06T05:49:29;5.20;99.90
3919;DHT22;1974;48.670;8.994;2024-01-06T05:51:56;5.20;99.90
3919;DHT22;1974;48.670;8.994;2024-01-06T05:54:23;5.20;99.90
3919;DHT22;1974;48.670;8.994;2024-01-06T05:56:50;5.20;99.90
3919;DHT22;1974;48.670;8.994;2024-01-06T05:59:16;5.20;99.90
3919;DHT22;1974;48.670;8.994;2024-01-06T06:01:43;5.20;99.90
3919;DHT22;1974;48.670;8.994;2024-01-06T06:04:10;5.20;99.90
3919;DHT22;1974;48.670;8.994;2024-01-06T06:06:38;5.20;99.90
3919;DHT22;1974;48.670;8.994;2024-01-06T06:09:05;5.30;99.90
3919;DHT22;1974;48.670;8.994;2024-01-06T06:11:32;5.30;99.90
3919;DHT22;1974;48.670;8.994;2024-01-06T06:13:59;5.30;99.90
3919;DHT22;1974;48.670;8.994;2024-01-06T06:16:28;5.30;99.90
3919;DHT22;1974;48.670;8.994;2024-01-06T06:18:55;5.30;99.90
3919;DHT22;1974;48.670;8.994;2024-01-06T06:21:21;5.30;99.90
3919;DHT22;1974;48.670;8.994;2024-01-06T06:23:50;5.30;99.90
3919;DHT22;1974;48.670;8.994;2024-01-06T06:26:16;5.30;99.90
3919;DHT22;1974;48.670;8.994;2024-01-06T06:28:43;5.40;99.90
3919;DHT22;1974;48.670;8.994;2024-01-06T06:31:10;5.30;99.90
3919;DHT22;1974;48.670;8.994;2024-01-06T06:33:37;5.30;99.90
3919;DHT22;1974;48.670;8.994;2024-01-06T06:36:05;5.40;99.90
3919;DHT22;1974;48.670;8.994;2024-01-06T06:38:31;5.40;99.90
3919;DHT22;1974;48.670;8.994;2024-01-06T06:40:59;5.40;99.90
3919;DHT22;1974;48.670;8.994;2024-01-06T06:43:26;5.30;99.90
3919;DHT22;1974;48.670;8.994;2024-01-06T06:45:53;5.40;99.90
3919;DHT22;1974;48.670;8.994;2024-01-06T06:48:20;5.30;99.90
3919;DHT22;1974;48.670;8.994;2024-01-06T06:50:47;5.40;99.90
3919;DHT22;1974;48.670;8.994;2024-01-06T06:53:14;5.30;99.90
3919;DHT22;1974;48.670;8.994;2024-01-06T06:55:41;5.30;99.90
3919;DHT22;1974;48.670;8.994;2024-01-06T06:58:09;5.30;99.90
3919;DHT22;1974;48.670;8.994;2024-01-06T07:00:35;5.30;99.90
3919;DHT22;1974;48.670;8.994;2024-01-06T07:03:03;5.30;99.90
3919;DHT22;1974;48.670;8.994;2024-01-06T07:05:30;5.30;99.90
3919;DHT22;1974;48.670;8.994;2024-01-06T07:07:57;5.40;99.90
3919;DHT22;1974;48.670;8.994;2024-01-06T07:10:26;5.30;99.90
3919;DHT22;1974;48.670;8.994;2024-01-06T07:12:52;5.30;99.90
3919;DHT22;1974;48.670;8.994;2024-01-06T07:15:20;5.30;99.90
3919;DHT22;1974;48.670;8.994;2024-01-06T07:17:47;5.30;99.90
3919;DHT22;1974;48.670;8.994;2024-01-06T07:20:14;5.30;99.90
3919;DHT22;1974;48.670;8.994;2024-01-06T07:22:41;5.30;99.90
3919;DHT22;1974;48.670;8.994;2024-01-06T07:25:07;5.30;99.90
3919;DHT22;1974;48.670;8.994;2024-01-06T07:27:34;5.30;99.90
3919;DHT22;1974;48.670;8.994;2024-01-06T07:30:01;5.30;99.90
3919;DHT22;1974;48.670;8.994;2024-01-06T07:32:29;5.30;99.90
3919;DHT22;1974;48.670;8.994;2024-01-06T07:34:55;5.30;99.90
3919;DHT22;1974;48.670;8.994;2024-01-06T07:37:22;5.30;99.90
3919;DHT22;1974;48.670;8.994;2024-01-06T07:39:49;5.30;99.90
3919;DHT22;1974;48.670;8.994;2024-01-06T07:42:16;5.30;99.90
3919;DHT22;1974;48.670;8.994;2024-01-06T07:44:42;5.30;99.90
3919;DHT22;1974;48.670;8.994;2024-01-06T07:47:09;5.30;99.90
3919;DHT22;1974;48.670;8.994;2024-01-06T07:49:37;5.30;99.90
3919;DHT22;1974;48.670;8.994;2024-01-06T07:52:04;5.30;99.90
3919;DHT22;1974;48.670;8.994;2024-01-06T07:54:31;5.30;99.90
3919;DHT22;1974;48.670;8.994;2024-01-06T07:56:58;5.20;99.90
3919;DHT22;1974;48.670;8.994;2024-01-06T07:59:24;5.20;99.90
3919;DHT22;1974;48.670;8.994;2024-01-06T08:01:51;5.20;99.90
3919;DHT22;1974;48.670;8.994;2024-01-06T08:04:18;5.20;99.90
3919;DHT22;1974;48.670;8.994;2024-01-06T08:06:46;5.30;99.90
3919;DHT22;1974;48.670;8.994;2024-01-06T08:09:13;5.20;99.90
3919;DHT22;1974;48.670;8.994;2024-01-06T08:11:39;5.30;99.90
3919;DHT22;1974;48.670;8.994;2024-01-06T08:14:08;5.30;99.90
3919;DHT22;1974;48.670;8.994;2024-01-06T08:16:36;5.40;99.90
3919;DHT22;1974;48.670;8.994;2024-01-06T08:19:03;5.40;99.90
3919;DHT22;1974;48.670;8.994;2024-01-06T08:21:29;5.60;99.90
3919;DHT22;1974;48.670;8.994;2024-01-06T08:23:57;5.60;99.90
3919;DHT22;1974;48.670;8.994;2024-01-06T08:26:24;5.60;99.90
3919;DHT22;1974;48.670;8.994;2024-01-06T08:28:51;5.70;99.90
3919;DHT22;1974;48.670;8.994;2024-01-06T08:31:19;5.70;99.90
3919;DHT22;1974;48.670;8.994;2024-01-06T08:33:47;5.80;99.90
3919;DHT22;1974;48.670;8.994;2024-01-06T08:36:14;5.90;99.90
3919;DHT22;1974;48.670;8.994;2024-01-06T08:38:41;5.90;99.90
3919;DHT22;1974;48.670;8.994;2024-01-06T08:41:09;6.00;99.90
3919;DHT22;1974;48.670;8.994;2024-01-06T08:43:35;6.00;99.90
3919;DHT22;1974;48.670;8.994;2024-01-06T08:46:02;6.00;99.90
3919;DHT22;1974;48.670;8.994;2024-01-06T08:48:29;6.00;99.90
3919;DHT22;1974;48.670;8.994;2024-01-06T08:50:55;6.00;99.90
3919;DHT22;1974;48.670;8.994;2024-01-06T08:53:22;6.00;99.90
3919;DHT22;1974;48.670;8.994;2024-01-06T08:55:48;6.00;99.90
3919;DHT22;1974;48.670;8.994;2024-01-06T08:58:17;6.00;99.90
3919;DHT22;1974;48.670;8.994;2024-01-06T09:00:44;6.00;99.90
3919;DHT22;1974;48.670;8.994;2024-01-06T09:03:10;6.00;99.90
3919;DHT22;1974;48.670;8.994;2024-01-06T09:05:38;6.00;99.90
3919;DHT22;1974;48.670;8.994;2024-01-06T09:08:05;6.00;99.90
3919;DHT22;1974;48.670;8.994;2024-01-06T09:10:32;6.00;99.90
3919;DHT22;1974;48.670;8.994;2024-01-06T09:12:59;6.00;99.90
3919;DHT22;1974;48.670;8.994;2024-01-06T09:15:28;6.10;99.90
3919;DHT22;1974;48.670;8.994;2024-01-06T09:17:55;6.10;99.90
3919;DHT22;1974;48.670;8.994;2024-01-06T09:20:21;6.20;99.90
3919;DHT22;1974;48.670;8.994;2024-01-06T09:22:49;6.20;99.90
3919;DHT22;1974;48.670;8.994;2024-01-06T09:25:15;6.20;99.90
3919;DHT22;1974;48.670;8.994;2024-01-06T09:27:42;6.20;99.90
3919;DHT22;1974;48.670;8.994;2024-01-06T09:30:09;6.20;99.90
3919;DHT22;1974;48.670;8.994;2024-01-06T09:32:37;6.20;99.90
3919;DHT22;1974;48.670;8.994;2024-01-06T09:35:05;6.30;99.90
3919;DHT22;1974;48.670;8.994;2024-01-06T09:37:32;6.20;99.90
3919;DHT22;1974;48.670;8.994;2024-01-06T09:39:58;6.20;99.90
3919;DHT22;1974;48.670;8.994;2024-01-06T09:42:25;6.20;99.90
3919;DHT22;1974;48.670;8.994;2024-01-06T09:44:52;6.20;99.90
3919;DHT22;1974;48.670;8.994;2024-01-06T09:47:22;6.30;99.90
3919;DHT22;1974;48.670;8.994;2024-01-06T09:49:50;6.30;99.90
3919;DHT22;1974;48.670;8.994;2024-01-06T09:52:22;6.40;99.90
3919;DHT22;1974;48.670;8.994;2024-01-06T09:54:51;6.40;99.90
3919;DHT22;1974;48.670;8.994;2024-01-06T09:57:18;6.40;99.90
3919;DHT22;1974;48.670;8.994;2024-01-06T09:59:46;6.50;99.90
3919;DHT22;1974;48.670;8.994;2024-01-06T10:02:14;6.50;99.90
3919;DHT22;1974;48.670;8.994;2024-01-06T10:04:49;6.50;99.90
3919;DHT22;1974;48.670;8.994;2024-01-06T10:07:17;6.60;99.90
3919;DHT22;1974;48.670;8.994;2024-01-06T10:09:43;6.70;99.90
3919;DHT22;1974;48.670;8.994;2024-01-06T10:12:13;6.80;99.90
3919;DHT22;1974;48.670;8.994;2024-01-06T10:14:40;6.90;99.90
3919;DHT22;1974;48.670;8.994;2024-01-06T10:17:07;6.90;99.90
3919;DHT22;1974;48.670;8.994;2024-01-06T10:19:34;7.00;99.90
3919;DHT22;1974;48.670;8.994;2024-01-06T10:22:03;7.00;99.90
3919;DHT22;1974;48.670;8.994;2024-01-06T10:24:29;7.10;99.90
3919;DHT22;1974;48.670;8.994;2024-01-06T10:26:57;7.10;99.90
3919;DHT22;1974;48.670;8.994;2024-01-06T10:29:25;7.10;99.90
3919;DHT22;1974;48.670;8.994;2024-01-06T10:31:52;7.20;99.90
3919;DHT22;1974;48.670;8.994;2024-01-06T10:34:19;7.30;99.90
3919;DHT22;1974;48.670;8.994;2024-01-06T10:36:46;7.30;99.90
3919;DHT22;1974;48.670;8.994;2024-01-06T10:39:14;7.30;99.90
3919;DHT22;1974;48.670;8.994;2024-01-06T10:41:45;7.30;99.90
3919;DHT22;1974;48.670;8.994;2024-01-06T10:44:13;7.30;99.90
3919;DHT22;1974;48.670;8.994;2024-01-06T10:46:44;7.30;99.90
3919;DHT22;1974;48.670;8.994;2024-01-06T10:49:12;7.20;99.90
3919;DHT22;1974;48.670;8.994;2024-01-06T10:51:40;7.20;99.90
3919;DHT22;1974;48.670;8.994;2024-01-06T10:54:08;7.10;99.90
3919;DHT22;1974;48.670;8.994;2024-01-06T10:56:38;7.10;99.90
3919;DHT22;1974;48.670;8.994;2024-01-06T10:59:05;7.00;99.90
3919;DHT22;1974;48.670;8.994;2024-01-06T11:01:33;6.90;99.90
3919;DHT22;1974;48.670;8.994;2024-01-06T11:04:02;6.90;99.90
3919;DHT22;1974;48.670;8.994;2024-01-06T11:06:30;6.80;99.90
3919;DHT22;1974;48.670;8.994;2024-01-06T11:09:03;6.80;99.90
3919;DHT22;1974;48.670;8.994;2024-01-06T11:11:31;6.80;99.90
3919;DHT22;1974;48.670;8.994;2024-01-06T11:14:21;6.80;99.90
3919;DHT22;1974;48.670;8.994;2024-01-06T11:16:48;6.80;99.90
3919;DHT22;1974;48.670;8.994;2024-01-06T11:19:42;6.70;99.90
3919;DHT22;1974;48.670;8.994;2024-01-06T11:22:21;6.70;99.90
3919;DHT22;1974;48.670;8.994;2024-01-06T11:24:50;6.70;99.90
3919;DHT22;1974;48.670;8.994;2024-01-06T11:27:18;6.70;99.90
3919;DHT22;1974;48.670;8.994;2024-01-06T11:29:47;6.80;99.90
3919;DHT22;1974;48.670;8.994;2024-01-06T11:32:24;6.90;99.90
3919;DHT22;1974;48.670;8.994;2024-01-06T11:34:52;7.10;99.90
3919;DHT22;1974;48.670;8.994;2024-01-06T11:37:24;7.20;99.90
3919;DHT22;1974;48.670;8.994;2024-01-06T11:39:50;7.40;99.90
3919;DHT22;1974;48.670;8.994;2024-01-06T11:42:18;7.40;99.90
3919;DHT22;1974;48.670;8.994;2024-01-06T11:44:51;7.40;99.90
3919;DHT22;1974;48.670;8.994;2024-01-06T11:47:18;7.40;99.90
3919;DHT22;1974;48.670;8.994;2024-01-06T11:49:54;7.40;99.90
3919;DHT22;1974;48.670;8.994;2024-01-06T11:52:22;7.40;99.90
3919;DHT22;1974;48.670;8.994;2024-01-06T11:54:51;7.40;99.90
3919;DHT22;1974;48.670;8.994;2024-01-06T11:57:18;7.50;99.90
3919;DHT22;1974;48.670;8.994;2024-01-06T11:59:46;7.60;99.90
3919;DHT22;1974;48.670;8.994;2024-01-06T12:02:14;7.60;99.90
3919;DHT22;1974;48.670;8.994;2024-01-06T12:04:41;7.80;99.90
3919;DHT22;1974;48.670;8.994;2024-01-06T12:07:08;7.80;99.90
3919;DHT22;1974;48.670;8.994;2024-01-06T12:09:38;7.90;99.90
3919;DHT22;1974;48.670;8.994;2024-01-06T12:12:06;8.00;99.90
3919;DHT22;1974;48.670;8.994;2024-01-06T12:14:33;8.00;99.90
3919;DHT22;1974;48.670;8.994;2024-01-06T12:16:59;7.90;99.90
3919;DHT22;1974;48.670;8.994;2024-01-06T12:19:30;7.80;99.90
3919;DHT22;1974;48.670;8.994;2024-01-06T12:21:57;7.70;99.90
3919;DHT22;1974;48.670;8.994;2024-01-06T12:24:24;7.50;99.90
3919;DHT22;1974;48.670;8.994;2024-01-06T12:26:54;7.40;99.90
3919;DHT22;1974;48.670;8.994;2024-01-06T12:29:21;7.40;99.90
3919;DHT22;1974;48.670;8.994;2024-01-06T12:31:48;7.20;99.90
3919;DHT22;1974;48.670;8.994;2024-01-06T12:34:14;7.20;99.90
3919;DHT22;1974;48.670;8.994;2024-01-06T12:36:43;7.20;99.90
3919;DHT22;1974;48.670;8.994;2024-01-06T12:39:12;7.20;99.90
3919;DHT22;1974;48.670;8.994;2024-01-06T12:41:40;7.20;99.90
3919;DHT22;1974;48.670;8.994;2024-01-06T12:44:07;7.20;99.90
3919;DHT22;1974;48.670;8.994;2024-01-06T12:46:33;7.20;99.90
3919;DHT22;1974;48.670;8.994;2024-01-06T12:49:00;7.20;99.90
3919;DHT22;1974;48.670;8.994;2024-01-06T12:51:27;7.20;99.90
3919;DHT22;1974;48.670;8.994;2024-01-06T12:53:56;7.10;99.90
3919;DHT22;1974;48.670;8.994;2024-01-06T12:56:22;7.10;99.90
3919;DHT22;1974;48.670;8.994;2024-01-06T12:58:49;7.10;99.90
3919;DHT22;1974;48.670;8.994;2024-01-06T13:01:16;7.10;99.90
3919;DHT22;1974;48.670;8.994;2024-01-06T13:03:43;7.10;99.90
3919;DHT22;1974;48.670;8.994;2024-01-06T13:06:10;7.10;99.90
3919;DHT22;1974;48.670;8.994;2024-01-06T13:08:37;7.10;99.90
3919;DHT22;1974;48.670;8.994;2024-01-06T13:11:05;7.10;99.90
3919;DHT22;1974;48.670;8.994;2024-01-06T13:13:32;7.10;99.90
3919;DHT22;1974;48.670;8.994;2024-01-06T13:15:59;7.10;99.90
3919;DHT22;1974;48.670;8.994;2024-01-06T13:18:27;7.20;99.90
3919;DHT22;1974;48.670;8.994;2024-01-06T13:20:54;7.10;99.90
3919;DHT22;1974;48.670;8.994;2024-01-06T13:23:21;7.00;99.90
3919;DHT22;1974;48.670;8.994;2024-01-06T13:25:47;7.00;99.90
3919;DHT22;1974;48.670;8.994;2024-01-06T13:28:15;6.90;99.90
3919;DHT22;1974;48.670;8.994;2024-01-06T13:30:42;6.90;99.90
3919;DHT22;1974;48.670;8.994;2024-01-06T13:33:09;6.90;99.90
3919;DHT22;1974;48.670;8.994;2024-01-06T13:35:36;6.80;99.90
3919;DHT22;1974;48.670;8.994;2024-01-06T13:38:03;6.80;99.90
3919;DHT22;1974;48.670;8.994;2024-01-06T13:40:30;6.80;99.90
3919;DHT22;1974;48.670;8.994;2024-01-06T13:42:57;6.80;99.90
3919;DHT22;1974;48.670;8.994;2024-01-06T13:45:26;6.70;99.90
3919;DHT22;1974;48.670;8.994;2024-01-06T13:47:53;6.60;99.90
3919;DHT22;1974;48.670;8.994;2024-01-06T13:50:19;6.60;99.90
3919;DHT22;1974;48.670;8.994;2024-01-06T13:52:47;6.60;99.90
3919;DHT22;1974;48.670;8.994;2024-01-06T13:55:14;6.50;99.90
3919;DHT22;1974;48.670;8.994;2024-01-06T13:57:41;6.50;99.90
3919;DHT22;1974;48.670;8.994;2024-01-06T14:00:08;6.40;99.90
3919;DHT22;1974;48.670;8.994;2024-01-06T14:02:37;6.30;99.90
3919;DHT22;1974;48.670;8.994;2024-01-06T14:05:04;6.40;99.90
3919;DHT22;1974;48.670;8.994;2024-01-06T14:07:34;6.40;99.90
3919;DHT22;1974;48.670;8.994;2024-01-06T14:10:00;6.40;99.90
3919;DHT22;1974;48.670;8.994;2024-01-06T14:12:29;6.30;99.90
3919;DHT22;1974;48.670;8.994;2024-01-06T14:14:56;6.30;99.90
3919;DHT22;1974;48.670;8.994;2024-01-06T14:17:22;6.40;99.90
3919;DHT22;1974;48.670;8.994;2024-01-06T14:19:50;6.40;99.90
3919;DHT22;1974;48.670;8.994;2024-01-06T14:22:17;6.40;99.90
3919;DHT22;1974;48.670;8.994;2024-01-06T14:24:44;6.40;99.90
3919;DHT22;1974;48.670;8.994;2024-01-06T14:27:11;6.40;99.90
3919;DHT22;1974;48.670;8.994;2024-01-06T14:29:38;6.30;99.90
3919;DHT22;1974;48.670;8.994;2024-01-06T14:32:05;6.30;99.90
3919;DHT22;1974;48.670;8.994;2024-01-06T14:34:32;6.30;99.90
3919;DHT22;1974;48.670;8.994;2024-01-06T14:37:01;6.30;99.90
3919;DHT22;1974;48.670;8.994;2024-01-06T14:39:27;6.20;99.90
3919;DHT22;1974;48.670;8.994;2024-01-06T14:41:54;6.30;99.90
3919;DHT22;1974;48.670;8.994;2024-01-06T14:44:20;6.20;99.90
3919;DHT22;1974;48.670;8.994;2024-01-06T14:46:47;6.10;99.90
3919;DHT22;1974;48.670;8.994;2024-01-06T14:49:16;6.20;99.90
3919;DHT22;1974;48.670;8.994;2024-01-06T14:51:42;6.10;99.90
3919;DHT22;1974;48.670;8.994;2024-01-06T14:54:12;6.20;99.90
3919;DHT22;1974;48.670;8.994;2024-01-06T14:56:38;6.10;99.90
3919;DHT22;1974;48.670;8.994;2024-01-06T14:59:06;6.00;99.90
3919;DHT22;1974;48.670;8.994;2024-01-06T15:01:33;6.00;99.90
3919;DHT22;1974;48.670;8.994;2024-01-06T15:03:59;6.00;99.90
3919;DHT22;1974;48.670;8.994;2024-01-06T15:06:26;6.00;99.90
3919;DHT22;1974;48.670;8.994;2024-01-06T15:08:53;5.90;99.90
3919;DHT22;1974;48.670;8.994;2024-01-06T15:11:21;5.90;99.90
3919;DHT22;1974;48.670;8.994;2024-01-06T15:13:48;6.00;99.90
3919;DHT22;1974;48.670;8.994;2024-01-06T15:16:14;6.00;99.90
3919;DHT22;1974;48.670;8.994;2024-01-06T15:18:41;5.90;99.90
3919;DHT22;1974;48.670;8.994;2024-01-06T15:21:08;6.00;99.90
3919;DHT22;1974;48.670;8.994;2024-01-06T15:23:34;5.90;99.90
3919;DHT22;1974;48.670;8.994;2024-01-06T15:26:01;5.90;99.90
3919;DHT22;1974;48.670;8.994;2024-01-06T15:28:30;5.80;99.90
3919;DHT22;1974;48.670;8.994;2024-01-06T15:30:57;5.90;99.90
3919;DHT22;1974;48.670;8.994;2024-01-06T15:33:25;5.90;99.90
3919;DHT22;1974;48.670;8.994;2024-01-06T15:35:52;5.90;99.90
3919;DHT22;1974;48.670;8.994;2024-01-06T15:38:19;5.90;99.90
3919;DHT22;1974;48.670;8.994;2024-01-06T15:40:46;5.90;99.90
3919;DHT22;1974;48.670;8.994;2024-01-06T15:43:13;5.80;99.90
3919;DHT22;1974;48.670;8.994;2024-01-06T15:45:41;5.80;99.90
3919;DHT22;1974;48.670;8.994;2024-01-06T15:48:07;5.80;99.90
3919;DHT22;1974;48.670;8.994;2024-01-06T15:50:34;5.70;99.90
3919;DHT22;1974;48.670;8.994;2024-01-06T15:53:01;5.70;99.90
3919;DHT22;1974;48.670;8.994;2024-01-06T15:55:28;5.70;99.90
3919;DHT22;1974;48.670;8.994;2024-01-06T15:57:54;5.70;99.90
3919;DHT22;1974;48.670;8.994;2024-01-06T16:00:21;5.60;99.90
3919;DHT22;1974;48.670;8.994;2024-01-06T16:02:50;5.60;99.90
3919;DHT22;1974;48.670;8.994;2024-01-06T16:05:17;5.60;99.90
3919;DHT22;1974;48.670;8.994;2024-01-06T16:07:43;5.60;99.90
3919;DHT22;1974;48.670;8.994;2024-01-06T16:10:10;5.60;99.90
3919;DHT22;1974;48.670;8.994;2024-01-06T16:12:39;5.60;99.90
3919;DHT22;1974;48.670;8.994;2024-01-06T16:15:07;5.60;99.90
3919;DHT22;1974;48.670;8.994;2024-01-06T16:17:34;5.60;99.90